createdAt,value
2017-09-18T00:01:38.002Z,9.80
2017-09-18T00:04:05.613Z,9.70
2017-09-18T00:06:33.214Z,9.70
2017-09-18T00:09:00.794Z,9.70
2017-09-18T00:11:28.418Z,9.70
2017-09-18T00:13:56.017Z,9.70
2017-09-18T00:16:23.654Z,9.70
2017-09-18T00:18:51.245Z,9.60
2017-09-18T00:21:18.832Z,9.50
2017-09-18T00:23:46.457Z,9.50
2017-09-18T00:26:14.088Z,9.50
2017-09-18T00:28:41.749Z,9.50
2017-09-18T00:31:09.333Z,9.50
2017-09-18T00:33:36.919Z,9.50
2017-09-18T00:36:05.373Z,9.40
2017-09-18T00:38:33.008Z,9.40
2017-09-18T00:41:00.641Z,9.30
2017-09-18T00:43:28.244Z,9.20
2017-09-18T00:45:55.836Z,9.30
2017-09-18T00:48:23.487Z,9.20
2017-09-18T00:50:51.114Z,9.20
2017-09-18T00:53:19.888Z,9.20
2017-09-18T00:55:47.492Z,9.20
2017-09-18T00:58:15.092Z,9.20
2017-09-18T01:00:42.699Z,9.20
2017-09-18T01:03:10.289Z,9.20
2017-09-18T01:05:38.666Z,9.10
2017-09-18T01:08:06.262Z,9.10
2017-09-18T01:10:33.883Z,9.20
2017-09-18T01:13:01.478Z,9.10
2017-09-18T01:15:29.078Z,9.10
2017-09-18T01:17:56.697Z,9.10
2017-09-18T01:20:24.310Z,9.00
2017-09-18T01:22:51.946Z,9.00
2017-09-18T01:25:19.550Z,9.00
2017-09-18T01:27:47.293Z,8.90
2017-09-18T01:30:14.942Z,8.90
2017-09-18T01:32:42.536Z,8.80
2017-09-18T01:35:10.185Z,8.80
2017-09-18T01:37:37.817Z,8.80
2017-09-18T01:40:05.417Z,8.80
2017-09-18T01:42:32.996Z,8.90
2017-09-18T01:45:01.399Z,8.90
2017-09-18T01:47:29.003Z,8.90
2017-09-18T01:49:56.621Z,9.00
2017-09-18T01:52:24.222Z,9.10
2017-09-18T01:54:51.812Z,9.20
2017-09-18T01:57:20.200Z,9.20
2017-09-18T01:59:48.553Z,9.20
2017-09-18T02:02:16.157Z,9.20
2017-09-18T02:04:43.799Z,9.10
2017-09-18T02:07:12.192Z,9.20
2017-09-18T02:09:39.786Z,9.10
2017-09-18T02:12:08.131Z,9.20
2017-09-18T02:14:35.756Z,9.20
2017-09-18T02:17:04.132Z,9.20
2017-09-18T02:19:31.728Z,9.20
2017-09-18T02:21:59.322Z,9.20
2017-09-18T02:24:26.986Z,9.20
2017-09-18T02:26:54.561Z,9.20
2017-09-18T02:29:22.169Z,9.20
2017-09-18T02:31:49.791Z,9.20
2017-09-18T02:34:17.455Z,9.30
2017-09-18T02:36:45.082Z,9.30
2017-09-18T02:39:12.660Z,9.30
2017-09-18T02:41:40.254Z,9.40
2017-09-18T02:44:08.691Z,9.40
2017-09-18T02:46:37.084Z,9.40
2017-09-18T02:49:04.699Z,9.40
2017-09-18T02:51:32.283Z,9.40
2017-09-18T02:53:59.894Z,9.50
2017-09-18T02:56:28.241Z,9.50
2017-09-18T02:58:55.855Z,9.50
2017-09-18T03:01:23.434Z,9.50
2017-09-18T03:03:51.059Z,9.60
2017-09-18T03:06:19.416Z,9.40
2017-09-18T03:08:47.009Z,9.40
2017-09-18T03:11:14.699Z,9.40
2017-09-18T03:13:42.290Z,9.50
2017-09-18T03:16:09.909Z,9.30
2017-09-18T03:18:37.496Z,9.40
2017-09-18T03:21:05.103Z,9.40
2017-09-18T03:23:32.695Z,9.40
2017-09-18T03:26:00.285Z,9.50
2017-09-18T03:28:27.884Z,9.50
2017-09-18T03:30:55.457Z,9.40
2017-09-18T03:33:23.073Z,9.40
2017-09-18T03:35:50.661Z,9.50
2017-09-18T03:38:18.266Z,9.50
2017-09-18T03:40:45.870Z,9.50
2017-09-18T03:43:13.495Z,9.60
2017-09-18T03:45:41.188Z,9.60
2017-09-18T03:48:08.784Z,9.60
2017-09-18T03:50:36.408Z,9.60
2017-09-18T03:53:04.042Z,9.60
2017-09-18T03:55:31.638Z,9.70
2017-09-18T03:57:59.263Z,9.70
2017-09-18T04:00:26.877Z,9.70
2017-09-18T04:02:55.285Z,9.50
2017-09-18T04:05:22.894Z,9.50
2017-09-18T04:07:50.488Z,9.50
2017-09-18T04:10:18.170Z,9.50
2017-09-18T04:12:45.764Z,9.50
2017-09-18T04:15:13.468Z,9.60
2017-09-18T04:17:41.079Z,9.60
2017-09-18T04:20:08.736Z,9.60
2017-09-18T04:22:36.342Z,9.60
2017-09-18T04:25:04.699Z,9.60
2017-09-18T04:27:32.334Z,9.60
2017-09-18T04:29:59.917Z,9.70
2017-09-18T04:32:27.642Z,9.70
2017-09-18T04:34:55.311Z,9.70
2017-09-18T04:37:22.934Z,9.70
2017-09-18T04:39:51.324Z,9.80
2017-09-18T04:42:19.693Z,9.90
2017-09-18T04:44:47.290Z,9.90
2017-09-18T04:47:14.928Z,10.00
2017-09-18T04:49:42.577Z,10.10
2017-09-18T04:52:10.926Z,10.20
2017-09-18T04:54:38.546Z,10.20
2017-09-18T04:57:06.173Z,10.20
2017-09-18T04:59:33.761Z,10.20
2017-09-18T05:02:01.399Z,10.30
2017-09-18T05:04:29.779Z,10.30
2017-09-18T05:06:57.391Z,10.30
2017-09-18T05:09:25.153Z,10.40
2017-09-18T05:11:53.570Z,10.40
2017-09-18T05:14:21.172Z,10.40
2017-09-18T05:16:48.775Z,10.50
2017-09-18T05:19:16.390Z,10.50
2017-09-18T05:21:43.992Z,10.50
2017-09-18T05:24:11.633Z,10.60
2017-09-18T05:26:39.246Z,10.60
2017-09-18T05:29:07.628Z,10.80
2017-09-18T05:31:36.045Z,10.70
2017-09-18T05:34:03.773Z,10.70
2017-09-18T05:36:32.158Z,10.90
2017-09-18T05:38:59.780Z,10.80
2017-09-18T05:41:27.447Z,10.90
2017-09-18T05:43:55.175Z,11.00
2017-09-18T05:46:22.795Z,11.00
2017-09-18T05:48:50.388Z,10.90
2017-09-18T05:51:18.021Z,10.90
2017-09-18T05:53:45.642Z,10.90
2017-09-18T05:56:13.292Z,10.90
2017-09-18T05:58:40.935Z,10.80
2017-09-18T06:01:08.539Z,10.90
2017-09-18T06:03:36.203Z,10.90
2017-09-18T06:06:03.786Z,10.90
2017-09-18T06:08:32.196Z,11.10
2017-09-18T06:10:59.842Z,11.00
2017-09-18T06:13:27.469Z,11.10
2017-09-18T06:15:55.054Z,11.10
2017-09-18T06:18:23.412Z,11.10
2017-09-18T06:20:51.034Z,11.10
2017-09-18T06:23:18.620Z,11.10
2017-09-18T06:25:46.235Z,11.10
2017-09-18T06:28:13.820Z,11.20
2017-09-18T06:30:41.438Z,11.20
2017-09-18T06:33:09.834Z,11.10
2017-09-18T06:35:37.449Z,11.10
2017-09-18T06:38:05.051Z,11.20
2017-09-18T06:40:32.651Z,11.10
2017-09-18T06:43:00.300Z,11.20
2017-09-18T06:45:27.923Z,11.30
2017-09-18T06:47:56.323Z,11.30
2017-09-18T06:50:23.913Z,11.20
2017-09-18T06:52:51.555Z,11.20
2017-09-18T06:55:19.168Z,11.30
2017-09-18T06:57:47.575Z,11.40
2017-09-18T07:00:15.191Z,11.30
2017-09-18T07:02:42.824Z,11.40
2017-09-18T07:05:10.452Z,11.40
2017-09-18T07:07:38.090Z,11.40
2017-09-18T07:10:05.739Z,11.50
2017-09-18T07:12:33.354Z,11.60
2017-09-18T07:15:00.990Z,11.70
2017-09-18T07:17:28.611Z,11.80
2017-09-18T07:19:56.205Z,11.70
2017-09-18T07:22:24.650Z,11.90
2017-09-18T07:24:52.246Z,11.90
2017-09-18T07:27:20.662Z,12.00
2017-09-18T07:29:48.256Z,12.00
2017-09-18T07:32:15.882Z,12.10
2017-09-18T07:34:43.530Z,12.20
2017-09-18T07:37:11.205Z,12.20
2017-09-18T07:39:38.850Z,12.30
2017-09-18T07:42:06.496Z,12.50
2017-09-18T07:44:34.969Z,12.70
2017-09-18T07:47:03.460Z,12.80
2017-09-18T07:49:31.849Z,13.00
2017-09-18T07:51:59.511Z,12.90
2017-09-18T07:54:27.122Z,13.10
2017-09-18T07:56:54.796Z,13.20
2017-09-18T07:59:22.517Z,13.20
2017-09-18T08:01:50.157Z,13.30
2017-09-18T08:04:17.965Z,13.40
2017-09-18T08:06:45.583Z,13.30
2017-09-18T08:09:13.217Z,13.40
2017-09-18T08:11:40.839Z,13.50
2017-09-18T08:14:08.440Z,13.40
2017-09-18T08:16:36.842Z,13.40
2017-09-18T08:19:04.519Z,13.30
2017-09-18T08:21:32.137Z,13.20
2017-09-18T08:23:59.776Z,13.10
2017-09-18T08:26:27.466Z,13.10
2017-09-18T08:28:55.161Z,13.00
2017-09-18T08:31:22.843Z,13.00
2017-09-18T08:33:50.443Z,12.90
2017-09-18T08:36:18.104Z,13.00
2017-09-18T08:38:45.728Z,13.00
2017-09-18T08:41:15.702Z,13.00
2017-09-18T08:43:44.085Z,12.90
2017-09-18T08:46:12.502Z,12.80
2017-09-18T08:48:40.128Z,12.80
2017-09-18T08:51:07.798Z,12.80
2017-09-18T08:53:35.438Z,12.80
2017-09-18T08:56:03.056Z,12.80
2017-09-18T08:58:30.682Z,12.80
2017-09-18T09:00:58.341Z,12.80
2017-09-18T09:03:26.753Z,12.60
2017-09-18T09:05:54.397Z,12.60
2017-09-18T09:08:22.510Z,12.40
2017-09-18T09:10:50.173Z,12.50
2017-09-18T09:13:17.852Z,12.50
2017-09-18T09:15:46.274Z,12.40
2017-09-18T09:18:13.964Z,12.40
2017-09-18T09:20:41.597Z,12.50
2017-09-18T09:23:09.184Z,12.40
2017-09-18T09:25:37.148Z,12.50
2017-09-18T09:28:04.744Z,12.60
2017-09-18T09:30:32.370Z,12.70
2017-09-18T09:32:59.985Z,12.80
2017-09-18T09:35:28.362Z,13.00
2017-09-18T09:37:55.999Z,13.00
2017-09-18T09:40:23.631Z,13.20
2017-09-18T09:42:51.243Z,13.30
2017-09-18T09:45:19.667Z,13.60
2017-09-18T09:47:47.360Z,13.60
2017-09-18T09:50:15.841Z,14.00
2017-09-18T09:52:43.452Z,14.00
2017-09-18T09:55:11.066Z,14.20
2017-09-18T09:57:38.668Z,14.40
2017-09-18T10:00:07.072Z,14.50
2017-09-18T10:02:34.696Z,14.50
2017-09-18T10:05:02.297Z,14.50
2017-09-18T10:07:29.992Z,14.50
2017-09-18T10:09:57.618Z,14.60
2017-09-18T10:12:25.238Z,14.90
2017-09-18T10:14:52.928Z,15.00
2017-09-18T10:17:20.518Z,15.10
2017-09-18T10:19:48.162Z,15.30
2017-09-18T10:22:15.785Z,15.30
2017-09-18T10:24:44.189Z,15.20
2017-09-18T10:27:11.781Z,15.20
2017-09-18T10:29:39.386Z,15.30
2017-09-18T10:32:07.840Z,15.30
2017-09-18T10:34:35.452Z,15.20
2017-09-18T10:37:03.311Z,15.30
2017-09-18T10:39:31.045Z,15.40
2017-09-18T10:41:58.646Z,15.60
2017-09-18T10:44:26.327Z,15.60
2017-09-18T10:46:53.936Z,15.70
2017-09-18T10:49:21.546Z,15.50
2017-09-18T10:51:49.269Z,15.40
2017-09-18T10:54:17.082Z,15.30
2017-09-18T10:56:44.758Z,15.20
2017-09-18T10:59:13.160Z,15.20
2017-09-18T11:01:40.813Z,15.10
2017-09-18T11:04:08.440Z,15.10
2017-09-18T11:06:36.049Z,15.10
2017-09-18T11:09:03.778Z,15.20
2017-09-18T11:11:31.366Z,15.00
2017-09-18T11:13:59.044Z,15.00
2017-09-18T11:16:27.435Z,15.30
2017-09-18T11:18:55.071Z,15.20
2017-09-18T11:21:23.475Z,15.20
2017-09-18T11:23:51.100Z,15.10
2017-09-18T11:26:18.790Z,15.30
2017-09-18T11:28:46.379Z,15.40
2017-09-18T11:31:14.041Z,15.60
2017-09-18T11:33:41.673Z,15.70
2017-09-18T11:36:10.061Z,15.60
2017-09-18T11:38:37.657Z,15.60
2017-09-18T11:41:05.304Z,15.60
2017-09-18T11:43:32.945Z,15.70
2017-09-18T11:46:01.352Z,15.50
2017-09-18T11:48:28.963Z,15.50
2017-09-18T11:50:56.567Z,15.40
2017-09-18T11:53:24.166Z,15.50
2017-09-18T11:55:51.809Z,15.30
2017-09-18T11:58:19.399Z,15.40
2017-09-18T12:00:47.073Z,15.30
2017-09-18T12:03:14.720Z,14.80
2017-09-18T12:05:42.645Z,14.60
2017-09-18T12:08:10.297Z,14.70
2017-09-18T12:10:37.981Z,14.80
2017-09-18T12:13:05.615Z,14.90
2017-09-18T12:15:33.324Z,15.00
2017-09-18T12:18:00.976Z,15.10
2017-09-18T12:20:28.571Z,15.20
2017-09-18T12:22:56.179Z,15.10
2017-09-18T12:25:23.779Z,15.10
2017-09-18T12:27:51.408Z,15.00
2017-09-18T12:30:19.013Z,15.00
2017-09-18T12:32:47.395Z,15.30
2017-09-18T12:35:15.758Z,15.40
2017-09-18T12:37:43.359Z,15.40
2017-09-18T12:40:10.981Z,15.60
2017-09-18T12:42:38.616Z,15.60
2017-09-18T12:45:06.248Z,15.70
2017-09-18T12:47:33.833Z,15.90
2017-09-18T12:50:01.461Z,16.00
2017-09-18T12:52:29.060Z,15.80
2017-09-18T12:54:56.718Z,15.60
2017-09-18T12:57:24.310Z,15.60
2017-09-18T12:59:52.703Z,15.70
2017-09-18T13:02:21.150Z,15.90
2017-09-18T13:04:48.750Z,15.80
2017-09-18T13:07:17.200Z,16.20
2017-09-18T13:09:44.854Z,16.20
2017-09-18T13:12:12.503Z,16.30
2017-09-18T13:14:40.176Z,16.40
2017-09-18T13:17:08.585Z,16.40
2017-09-18T13:19:36.218Z,16.40
2017-09-18T13:22:03.879Z,16.50
2017-09-18T13:24:31.496Z,16.50
2017-09-18T13:26:59.114Z,16.50
2017-09-18T13:29:26.725Z,16.30
2017-09-18T13:31:54.407Z,16.20
2017-09-18T13:34:22.044Z,15.90
2017-09-18T13:36:49.680Z,15.90
2017-09-18T13:39:17.378Z,15.70
2017-09-18T13:41:44.984Z,15.70
2017-09-18T13:44:12.561Z,15.80
2017-09-18T13:46:40.205Z,15.80
2017-09-18T13:49:07.834Z,16.10
2017-09-18T13:51:35.638Z,16.30
2017-09-18T13:54:04.028Z,16.60
2017-09-18T13:56:31.665Z,16.60
2017-09-18T13:58:59.991Z,16.50
2017-09-18T14:01:27.674Z,16.50
2017-09-18T14:03:55.273Z,16.50
2017-09-18T14:06:23.821Z,16.50
2017-09-18T14:08:51.444Z,16.50
2017-09-18T14:11:19.036Z,16.70
2017-09-18T14:13:46.645Z,16.80
2017-09-18T14:16:14.277Z,17.00
2017-09-18T14:18:41.955Z,16.90
2017-09-18T14:21:09.538Z,16.70
2017-09-18T14:23:37.183Z,16.60
2017-09-18T14:26:04.836Z,16.80
2017-09-18T14:28:32.469Z,16.80
2017-09-18T14:31:00.129Z,16.70
2017-09-18T14:33:27.718Z,16.60
2017-09-18T14:35:55.377Z,16.50
2017-09-18T14:38:22.984Z,16.50
2017-09-18T14:40:50.618Z,16.40
2017-09-18T14:43:18.260Z,16.20
2017-09-18T14:45:45.834Z,16.10
2017-09-18T14:48:13.470Z,16.10
2017-09-18T14:50:41.067Z,15.80
2017-09-18T14:53:08.732Z,15.70
2017-09-18T14:55:37.069Z,15.80
2017-09-18T14:58:04.686Z,15.70
2017-09-18T15:00:33.075Z,15.90
2017-09-18T15:03:00.702Z,15.90
2017-09-18T15:05:28.324Z,15.90
2017-09-18T15:07:55.921Z,15.80
2017-09-18T15:10:23.520Z,15.80
2017-09-18T15:15:25.136Z,15.90
2017-09-18T15:17:52.813Z,15.80
2017-09-18T15:20:20.476Z,15.90
2017-09-18T15:22:48.118Z,15.90
2017-09-18T15:25:15.733Z,15.90
2017-09-18T15:27:43.342Z,15.90
2017-09-18T15:30:11.616Z,15.60
2017-09-18T15:32:39.205Z,14.90
2017-09-18T15:35:06.798Z,14.70
2017-09-18T15:37:34.423Z,14.40
2017-09-18T15:40:02.061Z,14.30
2017-09-18T15:42:29.627Z,14.10
2017-09-18T15:44:57.221Z,13.70
2017-09-18T15:47:25.606Z,13.00
2017-09-18T15:49:53.194Z,13.00
2017-09-18T15:52:20.775Z,12.60
2017-09-18T15:54:48.359Z,12.30
2017-09-18T15:57:16.743Z,12.10
2017-09-18T15:59:45.107Z,12.00
2017-09-18T16:02:12.841Z,12.00
2017-09-18T16:04:40.461Z,12.10
2017-09-18T16:07:08.810Z,12.20
2017-09-18T16:09:36.414Z,12.20
2017-09-18T16:12:04.032Z,12.20
2017-09-18T16:14:31.629Z,12.30
2017-09-18T16:16:59.201Z,12.30
2017-09-18T16:19:26.839Z,12.30
2017-09-18T16:21:55.243Z,12.40
2017-09-18T16:24:22.921Z,12.40
2017-09-18T16:26:50.532Z,12.50
2017-09-18T16:29:18.918Z,12.60
2017-09-18T16:31:46.571Z,12.60
2017-09-18T16:34:14.522Z,12.60
2017-09-18T16:36:42.218Z,12.60
2017-09-18T16:39:09.816Z,12.60
2017-09-18T16:41:37.396Z,12.60
2017-09-18T16:44:05.074Z,12.60
2017-09-18T16:46:32.646Z,12.60
2017-09-18T16:49:00.246Z,12.50
2017-09-18T16:51:27.833Z,12.40
2017-09-18T16:53:55.454Z,12.40
2017-09-18T16:56:23.049Z,12.40
2017-09-18T16:58:50.673Z,12.30
2017-09-18T17:01:18.386Z,12.30
2017-09-18T17:03:46.015Z,12.30
2017-09-18T17:06:13.623Z,12.30
2017-09-18T17:08:41.240Z,12.30
2017-09-18T17:11:08.878Z,12.40
2017-09-18T17:13:36.601Z,12.40
2017-09-18T17:16:04.221Z,12.40
2017-09-18T17:18:31.785Z,12.50
2017-09-18T17:20:59.391Z,12.50
2017-09-18T17:23:26.972Z,12.50
2017-09-18T17:25:55.380Z,12.50
2017-09-18T17:28:22.988Z,12.50
2017-09-18T17:30:51.364Z,12.60
2017-09-18T17:33:19.717Z,12.50
2017-09-18T17:35:47.295Z,12.50
2017-09-18T17:38:14.901Z,12.30
2017-09-18T17:40:42.500Z,12.10
2017-09-18T17:43:10.115Z,12.20
2017-09-18T17:45:37.695Z,12.20
2017-09-18T17:48:05.471Z,12.20
2017-09-18T17:50:33.111Z,12.20
2017-09-18T17:53:00.732Z,12.20
2017-09-18T17:55:28.353Z,12.20
2017-09-18T17:57:55.951Z,12.20
2017-09-18T18:00:24.350Z,12.30
2017-09-18T18:02:51.935Z,12.30
2017-09-18T18:05:19.536Z,12.20
2017-09-18T18:07:47.123Z,12.20
2017-09-18T18:10:14.716Z,12.20
2017-09-18T18:12:42.350Z,12.20
2017-09-18T18:15:09.931Z,12.30
2017-09-18T18:17:37.545Z,12.30
2017-09-18T18:20:05.898Z,12.20
2017-09-18T18:22:33.582Z,12.10
2017-09-18T18:25:01.959Z,12.00
2017-09-18T18:27:29.537Z,12.00
2017-09-18T18:29:57.895Z,11.90
2017-09-18T18:32:25.517Z,11.90
2017-09-18T18:34:53.148Z,11.80
2017-09-18T18:37:20.804Z,11.80
2017-09-18T18:39:48.501Z,11.70
2017-09-18T18:42:16.124Z,11.70
2017-09-18T18:44:43.777Z,11.60
2017-09-18T18:47:12.172Z,11.50
2017-09-18T18:49:39.787Z,11.50
2017-09-18T18:52:07.389Z,11.50
2017-09-18T18:54:35.750Z,11.40
2017-09-18T18:57:03.333Z,11.40
2017-09-18T18:59:30.886Z,11.30
2017-09-18T19:01:59.276Z,11.50
2017-09-18T19:04:26.947Z,11.50
2017-09-18T19:06:54.539Z,11.50
2017-09-18T19:09:22.139Z,11.50
2017-09-18T19:11:50.464Z,11.50
2017-09-18T19:14:18.084Z,11.50
2017-09-18T19:16:45.701Z,11.50
2017-09-18T19:19:14.196Z,11.50
2017-09-18T19:21:41.864Z,11.50
2017-09-18T19:24:09.505Z,11.30
2017-09-18T19:26:37.209Z,11.30
2017-09-18T19:29:05.577Z,11.30
2017-09-18T19:31:33.185Z,11.20
2017-09-18T19:34:00.920Z,11.20
2017-09-18T19:36:29.319Z,11.20
2017-09-18T19:38:56.935Z,11.20
2017-09-18T19:41:24.507Z,11.20
2017-09-18T19:43:52.122Z,11.30
2017-09-18T19:46:19.861Z,11.30
2017-09-18T19:48:47.472Z,11.30
2017-09-18T19:51:15.088Z,11.30
2017-09-18T19:53:42.691Z,11.30
2017-09-18T19:56:10.281Z,11.40
2017-09-18T19:58:37.861Z,11.40
2017-09-18T20:01:05.528Z,11.30
2017-09-18T20:03:33.104Z,11.40
2017-09-18T20:06:00.683Z,11.50
2017-09-18T20:08:28.324Z,11.50
2017-09-18T20:10:56.673Z,11.50
2017-09-18T20:13:24.292Z,11.50
2017-09-18T20:15:51.974Z,11.50
2017-09-18T20:18:19.571Z,11.50
2017-09-18T20:20:47.188Z,11.60
2017-09-18T20:23:14.823Z,11.60
2017-09-18T20:25:42.451Z,11.50
2017-09-18T20:28:10.047Z,11.50
2017-09-18T20:30:37.680Z,11.50
2017-09-18T20:33:05.294Z,11.60
2017-09-18T20:35:32.886Z,11.60
2017-09-18T20:38:00.514Z,11.60
2017-09-18T20:40:28.142Z,11.70
2017-09-18T20:42:56.649Z,11.70
2017-09-18T20:45:24.229Z,11.70
2017-09-18T20:47:51.837Z,11.70
2017-09-18T20:50:20.165Z,11.80
2017-09-18T20:52:47.892Z,11.80
2017-09-18T20:55:15.527Z,11.80
2017-09-18T20:57:43.116Z,11.90
2017-09-18T21:00:10.753Z,11.90
2017-09-18T21:02:39.209Z,12.00
2017-09-18T21:05:06.833Z,12.00
2017-09-18T21:07:34.463Z,12.00
2017-09-18T21:10:02.949Z,12.00
2017-09-18T21:12:30.589Z,12.00
2017-09-18T21:14:58.149Z,12.00
2017-09-18T21:17:25.742Z,12.00
2017-09-18T21:19:53.324Z,12.00
2017-09-18T21:22:20.966Z,11.90
2017-09-18T21:24:48.580Z,12.00
2017-09-18T21:27:16.160Z,11.90
2017-09-18T21:29:43.771Z,11.80
2017-09-18T21:32:11.425Z,11.80
2017-09-18T21:34:39.019Z,11.80
2017-09-18T21:37:06.622Z,11.80
2017-09-18T21:39:34.250Z,11.80
2017-09-18T21:42:01.866Z,11.80
2017-09-18T21:44:29.438Z,11.70
2017-09-18T21:46:57.054Z,11.70
2017-09-18T21:49:25.413Z,11.80
2017-09-18T21:51:53.039Z,11.80
2017-09-18T21:54:20.622Z,11.80
2017-09-18T21:56:48.218Z,11.80
2017-09-18T21:59:16.614Z,11.90
2017-09-18T22:01:44.262Z,11.90
2017-09-18T22:04:11.915Z,12.00
2017-09-18T22:06:40.282Z,12.10
2017-09-18T22:09:08.690Z,12.00
2017-09-18T22:11:36.276Z,12.00
2017-09-18T22:14:04.912Z,12.00
2017-09-18T22:16:32.525Z,12.10
2017-09-18T22:19:00.113Z,12.10
2017-09-18T22:21:28.538Z,12.00
2017-09-18T22:23:56.100Z,12.00
2017-09-18T22:26:23.754Z,12.00
2017-09-18T22:28:51.299Z,12.00
2017-09-18T22:31:18.937Z,11.90
2017-09-18T22:33:46.550Z,11.90
2017-09-18T22:36:14.135Z,11.80
2017-09-18T22:38:41.714Z,11.90
2017-09-18T22:41:09.329Z,11.90
2017-09-18T22:43:36.911Z,11.90
2017-09-18T22:46:04.553Z,12.00
2017-09-18T22:48:32.191Z,12.00
2017-09-18T22:51:00.504Z,11.90
2017-09-18T22:53:28.104Z,11.90
2017-09-18T22:55:55.741Z,12.00
2017-09-18T22:58:23.338Z,12.00
2017-09-18T23:00:50.990Z,12.00
2017-09-18T23:03:18.608Z,12.00
2017-09-18T23:05:46.240Z,12.00
2017-09-18T23:08:14.600Z,12.00
2017-09-18T23:10:42.197Z,12.00
2017-09-18T23:13:09.778Z,12.00
2017-09-18T23:15:37.372Z,12.00
2017-09-18T23:18:04.979Z,12.10
2017-09-18T23:20:32.676Z,12.00
2017-09-18T23:23:00.263Z,12.10
2017-09-18T23:25:27.821Z,12.20
2017-09-18T23:27:55.386Z,12.20
2017-09-18T23:30:22.998Z,12.10
2017-09-18T23:32:50.569Z,12.10
2017-09-18T23:35:18.140Z,12.20
2017-09-18T23:37:45.737Z,12.20
2017-09-18T23:40:13.319Z,12.20
2017-09-18T23:42:40.915Z,12.20
2017-09-18T23:45:08.497Z,12.20
2017-09-18T23:47:36.129Z,12.30
2017-09-18T23:50:03.719Z,12.30
2017-09-18T23:52:31.349Z,12.20
2017-09-18T23:54:58.932Z,12.20
2017-09-18T23:57:27.281Z,12.30
2017-09-18T23:59:54.860Z,12.20
